createdAt,value
2019-05-17T00:02:27.483Z,99.90
2019-05-17T00:04:56.984Z,99.90
2019-05-17T00:07:32.010Z,99.90
2019-05-17T00:10:09.150Z,99.90
2019-05-17T00:12:38.656Z,99.90
2019-05-17T00:15:09.056Z,99.90
2019-05-17T00:17:39.054Z,99.90
2019-05-17T00:20:12.045Z,99.90
2019-05-17T00:22:41.992Z,99.90
2019-05-17T00:25:12.887Z,99.90
2019-05-17T00:27:51.520Z,99.90
2019-05-17T00:30:26.615Z,99.90
2019-05-17T00:36:04.113Z,99.90
2019-05-17T00:38:48.359Z,99.90
2019-05-17T00:41:17.767Z,99.90
2019-05-17T00:43:47.646Z,99.90
2019-05-17T00:46:22.756Z,99.90
2019-05-17T00:49:11.196Z,99.90
2019-05-17T01:04:27.464Z,99.90
2019-05-17T01:07:33.246Z,99.90
2019-05-17T01:16:07.379Z,99.90
2019-05-17T01:21:27.984Z,99.90
2019-05-17T01:24:17.916Z,99.90
2019-05-17T01:26:50.481Z,99.90
2019-05-17T01:29:52.566Z,99.90
2019-05-17T01:32:31.382Z,99.90
2019-05-17T01:35:07.327Z,99.90
2019-05-17T01:37:41.488Z,99.90
2019-05-17T01:40:11.327Z,99.90
2019-05-17T01:42:40.627Z,99.90
2019-05-17T01:45:10.625Z,99.90
2019-05-17T01:47:41.244Z,99.90
2019-05-17T01:50:14.466Z,99.90
2019-05-17T01:52:46.123Z,99.90
2019-05-17T01:55:17.211Z,99.90
2019-05-17T01:58:07.480Z,99.90
2019-05-17T02:00:48.502Z,99.90
2019-05-17T02:09:08.904Z,99.90
2019-05-17T02:12:02.136Z,99.90
2019-05-17T02:14:37.464Z,99.90
2019-05-17T02:23:47.853Z,99.90
2019-05-17T02:26:17.510Z,99.90
2019-05-17T02:28:57.003Z,99.90
2019-05-17T02:31:27.842Z,99.90
2019-05-17T02:34:03.114Z,99.90
2019-05-17T02:36:33.908Z,99.90
2019-05-17T02:39:08.171Z,99.90
2019-05-17T02:41:42.775Z,99.90
2019-05-17T02:44:13.030Z,99.90
2019-05-17T02:46:44.365Z,99.90
2019-05-17T02:49:14.921Z,99.90
2019-05-17T02:54:43.683Z,99.90
2019-05-17T02:58:12.853Z,99.90
2019-05-17T03:00:52.910Z,99.90
2019-05-17T03:04:03.922Z,99.90
2019-05-17T03:06:46.046Z,99.90
2019-05-17T03:09:25.144Z,99.90
2019-05-17T03:11:58.786Z,99.90
2019-05-17T03:14:28.201Z,99.90
2019-05-17T03:16:57.570Z,99.90
2019-05-17T03:19:27.585Z,99.90
2019-05-17T03:21:56.986Z,99.90
2019-05-17T03:24:26.370Z,99.90
2019-05-17T03:26:55.685Z,99.90
2019-05-17T03:29:26.423Z,99.90
2019-05-17T03:32:00.274Z,99.90
2019-05-17T03:34:27.936Z,99.90
2019-05-17T03:36:57.297Z,99.90
2019-05-17T03:39:26.684Z,99.90
2019-05-17T03:41:56.331Z,99.90
2019-05-17T03:44:25.790Z,99.90
2019-05-17T03:46:57.680Z,99.90
2019-05-17T03:49:28.513Z,99.90
2019-05-17T03:51:58.126Z,99.90
2019-05-17T03:54:27.673Z,99.90
2019-05-17T03:56:57.453Z,99.90
2019-05-17T03:59:26.876Z,99.90
2019-05-17T04:01:57.089Z,99.90
2019-05-17T04:04:26.654Z,99.90
2019-05-17T04:06:56.379Z,99.90
2019-05-17T04:09:25.866Z,99.90
2019-05-17T04:11:55.243Z,99.90
2019-05-17T04:14:24.701Z,99.90
2019-05-17T04:16:54.438Z,99.90
2019-05-17T04:19:23.777Z,99.90
2019-05-17T04:21:53.815Z,99.90
2019-05-17T04:24:23.314Z,99.90
2019-05-17T04:26:53.709Z,99.90
2019-05-17T04:29:24.244Z,99.90
2019-05-17T04:31:55.995Z,99.90
2019-05-17T04:34:25.791Z,99.90
2019-05-17T04:36:58.243Z,99.90
2019-05-17T04:39:27.627Z,99.90
2019-05-17T04:41:57.068Z,99.90
2019-05-17T04:44:28.046Z,99.90
2019-05-17T05:00:14.889Z,99.90
2019-05-17T05:02:55.417Z,99.90
2019-05-17T05:05:27.135Z,99.90
2019-05-17T05:08:02.992Z,99.90
2019-05-17T05:11:08.031Z,99.90
2019-05-17T05:13:37.908Z,99.90
2019-05-17T05:16:13.250Z,99.90
2019-05-17T05:18:48.680Z,99.90
2019-05-17T05:26:02.953Z,99.90
2019-05-17T05:29:02.589Z,99.90
2019-05-17T05:43:42.054Z,99.90
2019-05-17T05:49:58.541Z,99.90
2019-05-17T05:59:42.510Z,99.90
2019-05-17T06:02:15.370Z,99.90
2019-05-17T06:05:07.536Z,99.90
2019-05-17T06:07:48.189Z,99.90
2019-05-17T06:10:24.934Z,99.90
2019-05-17T06:13:04.987Z,99.90
2019-05-17T06:15:46.984Z,99.90
2019-05-17T06:18:38.417Z,99.90
2019-05-17T15:49:05.548Z,79.70
2019-05-17T16:33:33.847Z,79.90
2019-05-17T16:36:16.290Z,79.90
2019-05-17T16:38:53.247Z,79.90
2019-05-17T16:41:49.420Z,80.20
2019-05-17T16:50:26.450Z,76.30
2019-05-17T16:53:05.402Z,76.90
2019-05-17T16:55:27.004Z,76.90
2019-05-17T16:59:21.888Z,76.50
2019-05-17T17:02:29.279Z,76.00
2019-05-17T17:05:52.377Z,77.30
2019-05-17T17:08:21.700Z,77.30
2019-05-17T17:10:51.059Z,77.40
2019-05-17T17:13:33.120Z,77.20
2019-05-17T17:16:03.978Z,77.50
2019-05-17T17:19:09.250Z,78.40
2019-05-17T17:25:14.652Z,78.90
2019-05-17T17:40:49.517Z,80.50
2019-05-17T17:43:58.626Z,81.00
2019-05-17T17:47:11.587Z,81.80
2019-05-17T17:50:15.734Z,82.70
2019-05-17T17:56:28.504Z,83.50
2019-05-17T17:59:13.019Z,83.90
2019-05-17T18:11:10.081Z,85.10
2019-05-17T18:19:55.912Z,86.70
2019-05-17T18:23:01.906Z,87.30
2019-05-17T18:26:10.258Z,87.70
2019-05-17T18:29:29.475Z,88.10
2019-05-17T18:58:50.432Z,91.90
2019-05-17T19:01:20.693Z,92.30
2019-05-17T19:03:53.417Z,92.60
2019-05-17T19:06:32.293Z,93.00
2019-05-17T19:09:15.107Z,93.30
2019-05-17T19:11:47.473Z,93.70
2019-05-17T19:14:21.772Z,94.20
2019-05-17T19:21:14.864Z,95.00
2019-05-17T19:23:56.344Z,95.60
2019-05-17T19:32:43.302Z,97.40
2019-05-17T19:35:25.402Z,98.10
2019-05-17T19:43:50.293Z,99.80
2019-05-17T20:00:26.360Z,99.90
2019-05-17T20:02:59.976Z,99.90
2019-05-17T20:05:29.747Z,99.90
2019-05-17T20:08:00.106Z,99.90
2019-05-17T20:11:46.933Z,99.90
2019-05-17T20:37:10.230Z,99.90
2019-05-17T20:39:41.705Z,99.90
2019-05-17T20:45:32.536Z,99.90
2019-05-17T20:47:52.516Z,99.90
2019-05-17T20:50:32.479Z,99.90
2019-05-17T20:53:18.819Z,99.90
2019-05-17T20:56:10.580Z,99.90
2019-05-17T20:58:46.437Z,99.90
2019-05-17T21:01:17.524Z,99.90
2019-05-17T21:04:08.185Z,99.90
2019-05-17T21:06:34.863Z,99.90
2019-05-17T21:09:05.073Z,99.90
2019-05-17T21:11:34.467Z,99.90
2019-05-17T21:14:04.683Z,99.90
2019-05-17T21:19:30.075Z,99.90
2019-05-17T21:22:04.062Z,99.90
2019-05-17T21:24:34.244Z,99.90
2019-05-17T21:27:03.874Z,99.90
2019-05-17T21:29:33.690Z,99.90
2019-05-17T21:32:03.143Z,99.90
2019-05-17T21:34:32.548Z,99.90
2019-05-17T21:37:02.003Z,99.90
2019-05-17T21:39:31.542Z,99.90
2019-05-17T21:42:01.065Z,99.90
2019-05-17T21:44:30.570Z,99.90
2019-05-17T21:47:04.593Z,99.90
2019-05-17T21:49:32.276Z,99.90
2019-05-17T21:52:02.184Z,99.90
2019-05-17T21:54:31.744Z,99.90
2019-05-17T21:57:01.970Z,99.90
2019-05-17T21:59:33.426Z,99.90
2019-05-17T22:02:07.551Z,99.90
2019-05-17T22:04:36.942Z,99.90
2019-05-17T22:07:06.579Z,99.90
2019-05-17T22:09:37.313Z,99.90
2019-05-17T22:12:09.947Z,99.90
2019-05-17T22:14:43.480Z,99.90
2019-05-17T22:17:15.055Z,99.90
2019-05-17T22:19:44.662Z,99.90
2019-05-17T22:22:13.986Z,99.90
2019-05-17T22:24:43.277Z,99.90
2019-05-17T22:27:12.706Z,99.90
2019-05-17T22:29:42.130Z,99.90
2019-05-17T22:32:11.461Z,99.90
2019-05-17T22:34:40.791Z,99.90
2019-05-17T22:37:11.326Z,99.90
2019-05-17T22:39:40.622Z,99.90
2019-05-17T22:42:09.955Z,99.90
2019-05-17T22:44:40.787Z,99.90
2019-05-17T22:47:10.217Z,99.90
2019-05-17T22:49:39.508Z,99.90
2019-05-17T22:52:08.890Z,99.90
2019-05-17T22:54:38.297Z,99.90
2019-05-17T22:57:07.994Z,99.90
2019-05-17T22:59:37.326Z,99.90
2019-05-17T23:02:08.642Z,99.90
2019-05-17T23:04:37.963Z,99.90
2019-05-17T23:07:07.237Z,99.90
2019-05-17T23:09:36.558Z,99.90
2019-05-17T23:12:08.203Z,99.90
2019-05-17T23:14:37.476Z,99.90
2019-05-17T23:17:06.855Z,99.90
2019-05-17T23:19:36.182Z,99.90
2019-05-17T23:22:05.785Z,99.90
2019-05-17T23:24:35.047Z,99.90
2019-05-17T23:27:04.518Z,99.90
2019-05-17T23:29:33.956Z,99.90
2019-05-17T23:32:03.472Z,99.90
2019-05-17T23:34:32.872Z,99.90
2019-05-17T23:37:02.397Z,99.90
2019-05-17T23:39:31.794Z,99.90
2019-05-17T23:42:01.104Z,99.90
2019-05-17T23:44:31.690Z,99.90
2019-05-17T23:47:06.960Z,99.90
2019-05-17T23:49:32.091Z,99.90
2019-05-17T23:52:01.501Z,99.90
2019-05-17T23:54:30.811Z,99.90
2019-05-17T23:57:00.207Z,99.90
2019-05-17T23:59:29.575Z,99.90
